Time;durP1;ratioP1;P1;durP2;ratioP2;P2;SDS_P1;SDS_P2;PMS_P1;PMS_P2;Temp;Humidity;BMP_temperature;BMP_pressure;BME280_temperature;BME280_humidity;BME280_pressure;Samples;Min_cycle;Max_cycle;Signal;HPM_P1;HPM_P2
2022/01/25 00:15:03;;;;;;;18.05;11.48;;;7.40;58.80;;;;;;6183546;23;20048;-59
2022/01/25 00:27:41;;;;;;;17.20;12.43;;;7.40;58.80;;;;;;6172248;23;20005;-60
2022/01/25 00:29:56;;;;;;;19.27;13.25;;;7.30;58.80;;;;;;6173372;23;20009;-60
2022/01/25 00:32:23;;;;;;;20.58;12.35;;;7.30;58.80;;;;;;6183802;23;20009;-59
2022/01/25 00:34:50;;;;;;;22.27;13.43;;;7.30;58.90;;;;;;6174980;23;20384;-60
2022/01/25 00:37:16;;;;;;;17.77;11.65;;;7.30;58.80;;;;;;6174746;23;20001;-60
2022/01/25 00:39:42;;;;;;;16.00;11.57;;;7.30;58.80;;;;;;6173441;23;20001;-60
2022/01/25 00:42:09;;;;;;;17.30;13.13;;;7.30;58.90;;;;;;6173954;23;20013;-59
2022/01/25 00:44:38;;;;;;;18.63;13.48;;;7.30;58.90;;;;;;6174094;23;20008;-60
2022/01/25 00:47:07;;;;;;;18.02;12.60;;;7.30;58.90;;;;;;6173572;23;20275;-60
2022/01/25 00:49:37;;;;;;;17.80;12.20;;;7.30;58.80;;;;;;6174387;23;20000;-60
2022/01/25 00:52:19;;;;;;;16.38;12.88;;;7.30;58.80;;;;;;6173269;23;20023;-60
2022/01/25 00:54:47;;;;;;;16.05;12.40;;;7.30;59.30;;;;;;6173099;23;20345;-60
2022/01/25 00:57:14;;;;;;;18.42;12.60;;;7.30;58.80;;;;;;6173520;23;20303;-60
2022/01/25 00:59:40;;;;;;;16.58;12.68;;;7.30;58.80;;;;;;6173759;23;20020;-60
2022/01/25 01:02:10;;;;;;;19.13;13.55;;;7.30;58.80;;;;;;6174243;23;20013;-59
2022/01/25 01:04:36;;;;;;;19.67;13.38;;;7.30;58.80;;;;;;6174410;23;20005;-60
2022/01/25 01:07:06;;;;;;;21.23;13.85;;;7.30;58.90;;;;;;6173488;23;20004;-60
2022/01/25 01:09:35;;;;;;;18.40;13.55;;;7.30;58.90;;;;;;6174494;23;19997;-59
2022/01/25 01:12:06;;;;;;;16.85;12.65;;;7.30;58.90;;;;;;6174036;23;20005;-59
2022/01/25 01:14:57;;;;;;;;;;;;;;;;;;;;;
2022/01/25 01:29:05;;;;;;;19.85;13.32;;;7.30;58.90;;;;;;6182602;23;20028;-58
2022/01/25 01:31:15;;;;;;;23.75;12.93;;;7.30;58.90;;;;;;6184036;23;20334;-58
2022/01/25 01:44:02;;;;;;;21.25;14.05;;;7.30;58.90;;;;;;6182193;23;20005;-60
2022/01/25 01:49:00;;;;;;;21.98;13.60;;;7.20;58.90;;;;;;6184157;23;20009;-60
2022/01/25 01:51:36;;;;;;;18.08;12.32;;;7.20;58.90;;;;;;6178334;23;20001;-60
2022/01/25 01:54:07;;;;;;;20.55;14.57;;;7.20;58.90;;;;;;6172967;23;20430;-60
2022/01/25 01:56:34;;;;;;;21.23;14.25;;;7.20;58.90;;;;;;6173159;23;20005;-60
2022/01/25 01:59:03;;;;;;;18.65;13.30;;;7.20;58.90;;;;;;6173286;23;20008;-60
2022/01/25 02:01:31;;;;;;;21.25;14.75;;;7.20;58.90;;;;;;6174094;23;20005;-60
2022/01/25 02:04:00;;;;;;;22.20;14.77;;;7.20;58.90;;;;;;6172287;23;20000;-60
2022/01/25 02:06:27;;;;;;;21.33;14.40;;;7.20;59.00;;;;;;6173760;23;20000;-60
2022/01/25 02:08:53;;;;;;;21.75;14.38;;;7.20;59.00;;;;;;6173792;23;20005;-60
2022/01/25 02:11:20;;;;;;;19.70;14.80;;;7.20;59.00;;;;;;6174774;23;20027;-59
2022/01/25 02:13:47;;;;;;;23.65;14.95;;;7.20;58.90;;;;;;6171691;23;20199;-59
2022/01/25 02:16:33;;;;;;;21.88;15.07;;;7.20;59.00;;;;;;6173778;23;20255;-60
2022/01/25 02:24:32;;;;;;;18.15;12.60;;;7.20;59.00;;;;;;6182124;23;20008;-59
2022/01/25 02:26:58;;;;;;;21.50;13.70;;;7.20;59.00;;;;;;6172679;23;20009;-60
2022/01/25 02:29:25;;;;;;;22.88;14.68;;;7.20;59.00;;;;;;6173662;23;20333;-60
2022/01/25 02:31:55;;;;;;;22.58;16.65;;;7.20;59.00;;;;;;6173783;23;20020;-60
2022/01/25 02:34:23;;;;;;;26.02;16.63;;;7.20;59.00;;;;;;6173331;23;20005;-59
2022/01/25 02:37:02;;;;;;;26.73;15.57;;;7.20;59.00;;;;;;6172810;23;20001;-60
2022/01/25 02:39:29;;;;;;;21.45;14.30;;;7.10;58.90;;;;;;6179553;23;20004;-59
2022/01/25 02:41:56;;;;;;;21.15;15.75;;;7.10;58.90;;;;;;6172815;23;20005;-59
2022/01/25 02:44:27;;;;;;;21.58;15.00;;;7.10;58.90;;;;;;6171070;23;20338;-59
2022/01/25 02:49:29;;;;;;;23.02;16.15;;;7.10;58.90;;;;;;6184251;23;20009;-59
2022/01/25 02:51:55;;;;;;;25.42;16.00;;;7.20;59.00;;;;;;6174000;23;20040;-59
2022/01/25 02:54:22;;;;;;;19.73;14.73;;;7.10;58.90;;;;;;6173079;23;20024;-59
2022/01/25 02:56:48;;;;;;;24.92;16.35;;;7.10;58.90;;;;;;6173707;23;20009;-59
2022/01/25 02:59:16;;;;;;;25.42;17.27;;;7.10;58.90;;;;;;6172590;23;20069;-60
2022/01/25 03:01:44;;;;;;;23.70;17.30;;;7.10;59.00;;;;;;6173507;23;20013;-60
2022/01/25 03:04:12;;;;;;;22.88;16.42;;;7.10;59.10;;;;;;6171878;23;20005;-59
2022/01/25 03:06:39;;;;;;;22.35;16.25;;;7.10;59.10;;;;;;6175456;23;20001;-59
2022/01/25 03:09:06;;;;;;;25.65;16.48;;;7.10;59.20;;;;;;6175047;23;20012;-60
2022/01/25 03:11:33;;;;;;;22.90;17.60;;;7.10;59.10;;;;;;6175224;23;20001;-60
2022/01/25 03:14:02;;;;;;;27.73;17.30;;;7.10;59.00;;;;;;6173503;23;20001;-59
2022/01/25 03:17:03;;;;;;;24.98;17.88;;;7.10;59.10;;;;;;6175862;23;20195;-59
2022/01/25 03:22:03;;;;;;;25.15;17.70;;;7.10;59.20;;;;;;6184715;23;20016;-60
2022/01/25 03:24:29;;;;;;;24.35;17.30;;;7.10;59.20;;;;;;6175191;23;20009;-59
2022/01/25 03:26:56;;;;;;;26.77;17.08;;;7.10;59.20;;;;;;6170639;23;20012;-59
2022/01/25 03:29:22;;;;;;;26.83;18.27;;;7.10;59.30;;;;;;6174589;23;20016;-59
2022/01/25 03:31:49;;;;;;;27.20;18.35;;;7.10;59.40;;;;;;6175682;23;19997;-60
2022/01/25 03:34:15;;;;;;;24.35;17.77;;;7.10;59.40;;;;;;6173056;23;20004;-60
2022/01/25 03:36:43;;;;;;;27.15;18.02;;;7.10;59.90;;;;;;6174678;23;20008;-59
2022/01/25 03:39:10;;;;;;;23.67;16.70;;;7.10;59.40;;;;;;6174975;23;20743;-59
2022/01/25 03:41:36;;;;;;;25.73;18.15;;;7.10;59.40;;;;;;6172785;23;20014;-60
2022/01/25 03:44:03;;;;;;;27.15;18.33;;;7.10;59.40;;;;;;6173040;23;20005;-60
2022/01/25 03:46:38;;;;;;;28.95;18.42;;;7.10;59.40;;;;;;6173121;23;20012;-60
2022/01/25 03:51:50;;;;;;;32.63;18.92;;;7.10;59.30;;;;;;6184783;23;20032;-59
2022/01/25 03:54:18;;;;;;;29.50;20.80;;;7.10;59.20;;;;;;6174036;23;20029;-60
2022/01/25 03:56:44;;;;;;;28.02;18.90;;;7.10;59.30;;;;;;6173863;23;20001;-59
2022/01/25 03:59:11;;;;;;;29.50;20.23;;;7.10;59.20;;;;;;6172575;23;20175;-58
2022/01/25 04:01:37;;;;;;;27.00;19.08;;;7.10;59.20;;;;;;6173499;23;20001;-60
2022/01/25 04:04:11;;;;;;;30.30;19.45;;;7.10;59.20;;;;;;6174428;23;20005;-60
2022/01/25 04:06:38;;;;;;;;;;;7.10;59.20;;;;;;6184895;23;20004;-60
2022/01/25 04:09:06;;;;;;;29.20;20.45;;;7.10;59.20;;;;;;6172735;23;19908;-59
2022/01/25 04:11:33;;;;;;;29.10;20.85;;;7.10;59.10;;;;;;6175172;23;20326;-60
2022/01/25 04:14:00;;;;;;;32.47;22.20;;;7.10;59.10;;;;;;6171985;23;20020;-59
2022/01/25 04:16:32;;;;;;;34.63;23.10;;;7.00;59.10;;;;;;6174436;23;20009;-60
2022/01/25 04:19:45;;;;;;;34.83;22.35;;;7.00;59.10;;;;;;6174596;23;20008;-60
2022/01/25 04:27:10;;;;;;;30.85;21.55;;;7.00;59.20;;;;;;6182453;23;20004;-60
2022/01/25 04:29:37;;;;;;;32.45;20.58;;;7.00;59.20;;;;;;6174781;23;20002;-59
2022/01/25 04:32:06;;;;;;;28.85;20.90;;;7.00;59.20;;;;;;6174216;23;20005;-60
2022/01/25 04:55:46;;;;;;;32.65;22.10;;;7.00;59.10;;;;;;6184693;23;20005;-59
2022/01/25 04:58:20;;;;;;;31.55;23.02;;;6.90;59.20;;;;;;6173075;23;20008;-59
2022/01/25 05:00:47;;;;;;;40.85;24.17;;;6.90;59.20;;;;;;6183050;23;20002;-60
2022/01/25 05:03:21;;;;;;;30.70;22.58;;;6.90;59.20;;;;;;6173447;23;20009;-59
2022/01/25 05:08:35;;;;;;;33.75;21.20;;;6.90;59.20;;;;;;6184073;23;20005;-59
2022/01/25 05:11:07;;;;;;;35.63;22.77;;;6.90;59.30;;;;;;6183842;23;20012;-59
2022/01/25 05:13:47;;;;;;;32.88;21.90;;;6.90;59.30;;;;;;6180140;23;20478;-59
2022/01/25 05:18:47;;;;;;;71.13;35.75;;;6.90;59.30;;;;;;6169804;23;20000;-59
2022/01/25 05:23:58;;;;;;;53.35;30.10;;;6.90;59.50;;;;;;6181693;23;20023;-59
2022/01/25 05:26:26;;;;;;;43.35;26.95;;;6.90;59.50;;;;;;6173943;23;20192;-59
2022/01/25 05:28:52;;;;;;;40.33;25.77;;;6.90;59.50;;;;;;6172029;23;20000;-60
2022/01/25 05:31:19;;;;;;;34.83;24.40;;;6.90;59.50;;;;;;6174975;23;19997;-59
2022/01/25 05:33:45;;;;;;;33.42;23.25;;;6.90;59.50;;;;;;6171780;23;20219;-59
2022/01/25 05:36:13;;;;;;;31.20;22.45;;;6.90;59.40;;;;;;6171430;23;20009;-60
2022/01/25 05:38:39;;;;;;;35.63;22.45;;;6.90;59.40;;;;;;6170778;23;20338;-60
2022/01/25 05:41:05;;;;;;;37.63;24.63;;;6.90;59.30;;;;;;6173797;23;20449;-59
2022/01/25 05:46:10;;;;;;;;;;;;;;;;;;;;;
2022/01/25 05:48:28;;;;;;;34.45;21.95;;;6.80;59.40;;;;;;6181853;23;20599;-59
2022/01/25 05:50:55;;;;;;;32.10;22.25;;;6.80;59.40;;;;;;6172538;23;20188;-59
2022/01/25 05:53:22;;;;;;;33.63;22.55;;;6.80;59.50;;;;;;6172816;23;20025;-59
2022/01/25 05:55:48;;;;;;;32.63;21.02;;;6.80;59.40;;;;;;6171436;23;20008;-60
2022/01/25 05:58:15;;;;;;;33.08;21.42;;;6.90;59.40;;;;;;6171825;23;20008;-59
2022/01/25 06:00:41;;;;;;;29.92;22.40;;;6.80;59.40;;;;;;6170855;23;20423;-60
2022/01/25 06:03:08;;;;;;;60.33;32.20;;;6.80;59.40;;;;;;6173200;23;20334;-59
2022/01/25 06:05:34;;;;;;;43.17;27.70;;;6.80;59.50;;;;;;6172663;23;20005;-60
2022/01/25 06:08:03;;;;;;;43.58;25.80;;;6.80;59.60;;;;;;6173131;23;20011;-60
2022/01/25 06:10:29;;;;;;;43.78;26.63;;;6.80;59.60;;;;;;6173712;23;19997;-60
2022/01/25 06:12:56;;;;;;;40.17;26.67;;;6.80;59.60;;;;;;6171177;23;20012;-60
2022/01/25 06:15:22;;;;;;;38.30;25.17;;;6.80;59.60;;;;;;6171381;23;20005;-60
2022/01/25 06:17:49;;;;;;;37.55;25.05;;;6.80;59.70;;;;;;6168825;23;20004;-59
2022/01/25 06:20:16;;;;;;;36.17;24.25;;;6.80;59.80;;;;;;6148537;23;20016;-60
2022/01/25 06:22:42;;;;;;;44.72;26.08;;;6.80;59.80;;;;;;6139499;23;20332;-60
2022/01/25 06:25:11;;;;;;;66.60;34.92;;;6.80;59.80;;;;;;6142013;23;20002;-60
2022/01/25 06:27:39;;;;;;;62.47;33.70;;;6.80;59.80;;;;;;6140743;23;19997;-59
2022/01/25 06:30:08;;;;;;;47.08;29.42;;;6.80;59.90;;;;;;6142776;23;20017;-60
2022/01/25 06:32:35;;;;;;;43.75;29.02;;;6.80;59.80;;;;;;6143207;23;20370;-60
2022/01/25 06:35:02;;;;;;;40.47;24.40;;;6.80;59.80;;;;;;6143421;23;20004;-59
2022/01/25 06:37:28;;;;;;;37.83;24.30;;;6.80;59.80;;;;;;6142579;23;20438;-60
2022/01/25 06:39:54;;;;;;;37.55;23.73;;;6.80;59.70;;;;;;6142657;23;20009;-60
2022/01/25 06:42:21;;;;;;;34.45;23.85;;;6.80;59.70;;;;;;6141102;23;20008;-59
2022/01/25 06:44:47;;;;;;;39.88;25.42;;;6.80;59.70;;;;;;6143094;23;20006;-59
2022/01/25 06:47:13;;;;;;;37.22;23.67;;;6.80;59.80;;;;;;6143268;23;20013;-60
2022/01/25 06:49:39;;;;;;;40.15;24.42;;;6.80;59.80;;;;;;6143806;23;20006;-60
2022/01/25 06:52:06;;;;;;;36.92;23.60;;;6.80;59.70;;;;;;6140950;23;20020;-60
2022/01/25 06:54:32;;;;;;;36.50;24.15;;;6.80;59.70;;;;;;6139747;23;20017;-59
2022/01/25 06:56:58;;;;;;;38.78;24.40;;;6.80;59.70;;;;;;6140225;23;19998;-59
2022/01/25 06:59:24;;;;;;;37.08;24.02;;;6.80;59.70;;;;;;6141424;23;20006;-60
2022/01/25 07:01:50;;;;;;;36.42;23.15;;;6.80;59.70;;;;;;6140740;23;19998;-60
2022/01/25 07:04:17;;;;;;;38.65;24.42;;;6.80;59.70;;;;;;6141096;23;20009;-58
2022/01/25 07:06:43;;;;;;;38.38;25.48;;;6.80;59.70;;;;;;6141863;23;20016;-60
2022/01/25 07:09:09;;;;;;;44.05;26.38;;;6.80;59.70;;;;;;6142775;23;20002;-61
2022/01/25 07:11:36;;;;;;;39.85;25.83;;;6.80;59.70;;;;;;6139444;23;19998;-61
2022/01/25 07:14:02;;;;;;;47.92;27.30;;;6.80;59.60;;;;;;6140367;23;20001;-60
2022/01/25 07:16:28;;;;;;;43.88;26.00;;;6.80;59.60;;;;;;6142631;23;20002;-60
2022/01/25 07:18:55;;;;;;;46.45;27.52;;;6.80;59.70;;;;;;6142904;23;20010;-60
2022/01/25 07:21:21;;;;;;;41.33;27.27;;;6.70;59.60;;;;;;6143326;23;20435;-61
2022/01/25 07:23:47;;;;;;;44.13;26.35;;;6.70;59.70;;;;;;6139339;23;20024;-60
2022/01/25 07:26:14;;;;;;;37.17;24.45;;;6.70;59.80;;;;;;6141782;23;20009;-60
2022/01/25 07:28:40;;;;;;;44.53;25.95;;;6.70;59.80;;;;;;6140996;23;19998;-60
2022/01/25 07:31:06;;;;;;;43.33;25.92;;;6.80;59.80;;;;;;6143957;23;20009;-61
2022/01/25 07:33:32;;;;;;;39.33;25.92;;;6.80;59.70;;;;;;6140737;23;19998;-61
2022/01/25 07:35:58;;;;;;;42.58;26.52;;;6.80;60.20;;;;;;6142767;23;20005;-60
2022/01/25 07:38:25;;;;;;;43.33;26.75;;;6.70;59.60;;;;;;6141334;23;20335;-60
2022/01/25 07:40:51;;;;;;;46.63;25.83;;;6.70;59.60;;;;;;6143809;23;20347;-60
2022/01/25 07:43:17;;;;;;;41.55;26.80;;;6.70;59.70;;;;;;6137957;23;20009;-61
2022/01/25 07:45:50;;;;;;;43.40;27.38;;;6.70;59.70;;;;;;6141043;23;20036;-60
2022/01/25 07:48:16;;;;;;;40.78;27.85;;;6.70;59.80;;;;;;6143750;23;20431;-60
2022/01/25 07:50:42;;;;;;;45.65;27.73;;;6.70;59.80;;;;;;6141127;23;19997;-60
2022/01/25 07:53:09;;;;;;;40.47;25.88;;;6.70;59.80;;;;;;6142025;23;20014;-61
2022/01/25 07:55:35;;;;;;;45.80;28.00;;;6.60;59.90;;;;;;6144099;23;20009;-60
2022/01/25 07:58:01;;;;;;;70.30;38.25;;;6.60;59.80;;;;;;6144018;23;20021;-60
2022/01/25 08:00:28;;;;;;;49.90;28.92;;;6.60;59.80;;;;;;6145753;23;19998;-60
2022/01/25 08:02:54;;;;;;;49.85;31.63;;;6.60;59.80;;;;;;6143950;23;19998;-61
2022/01/25 08:05:23;;;;;;;43.67;27.38;;;6.60;59.70;;;;;;6146108;23;20009;-61
2022/01/25 08:07:49;;;;;;;48.92;27.83;;;6.60;59.70;;;;;;6145291;23;19993;-60
2022/01/25 08:10:16;;;;;;;42.95;27.75;;;6.60;59.80;;;;;;6143713;23;20005;-61
2022/01/25 08:12:42;;;;;;;44.50;27.08;;;6.60;60.40;;;;;;6143408;23;20002;-60
2022/01/25 08:15:09;;;;;;;43.70;26.75;;;6.50;59.80;;;;;;6143021;23;20009;-60
2022/01/25 08:17:36;;;;;;;47.72;27.23;;;6.50;59.80;;;;;;6145474;23;19998;-60
2022/01/25 08:20:04;;;;;;;49.97;28.65;;;6.50;60.60;;;;;;6145185;23;19998;-61
2022/01/25 08:22:31;;;;;;;45.37;28.30;;;6.50;59.90;;;;;;6140950;23;20009;-60
2022/01/25 08:24:57;;;;;;;47.78;28.27;;;6.50;60.00;;;;;;6144506;23;20704;-61
2022/01/25 08:27:24;;;;;;;49.33;28.20;;;6.50;60.00;;;;;;6142279;23;20020;-61
2022/01/25 08:29:52;;;;;;;43.63;25.73;;;6.50;60.00;;;;;;6142469;23;20427;-61
2022/01/25 08:32:19;;;;;;;44.13;26.10;;;6.50;60.00;;;;;;6141458;23;20009;-61
2022/01/25 08:34:46;;;;;;;42.00;26.55;;;6.50;60.10;;;;;;6143010;23;20227;-60
2022/01/25 08:37:14;;;;;;;44.20;25.75;;;6.50;60.10;;;;;;6143390;23;20009;-61
2022/01/25 08:39:41;;;;;;;49.42;26.27;;;6.40;60.10;;;;;;6143418;23;20431;-61
2022/01/25 08:42:08;;;;;;;45.30;25.80;;;6.50;60.10;;;;;;6142244;23;20021;-61
2022/01/25 08:44:35;;;;;;;45.97;26.05;;;6.40;60.10;;;;;;6142503;23;20021;-61
2022/01/25 08:47:03;;;;;;;47.10;26.13;;;6.40;60.10;;;;;;6143437;23;20008;-60
2022/01/25 08:49:30;;;;;;;44.90;27.13;;;6.40;60.20;;;;;;6144929;23;19998;-60
2022/01/25 08:51:57;;;;;;;51.28;28.83;;;6.40;60.20;;;;;;6143974;23;20020;-61
2022/01/25 08:54:25;;;;;;;44.53;25.92;;;6.40;60.20;;;;;;6144774;23;20327;-60
2022/01/25 08:56:53;;;;;;;42.90;25.70;;;6.40;60.30;;;;;;6143753;23;20005;-61
2022/01/25 08:59:19;;;;;;;46.22;26.27;;;6.40;60.40;;;;;;6144187;23;20005;-61
2022/01/25 09:01:45;;;;;;;48.58;26.52;;;6.40;60.60;;;;;;6144212;23;20422;-61
2022/01/25 09:04:11;;;;;;;44.03;26.13;;;6.40;60.70;;;;;;6142971;23;20009;-59
2022/01/25 09:06:38;;;;;;;45.17;27.38;;;6.40;60.80;;;;;;6142946;23;20009;-60
2022/01/25 09:09:08;;;;;;;46.63;25.23;;;6.40;60.70;;;;;;6143121;23;20005;-61
2022/01/25 09:11:39;;;;;;;46.83;26.75;;;6.40;60.70;;;;;;6144331;23;20005;-61
2022/01/25 09:14:07;;;;;;;49.03;25.77;;;6.40;60.80;;;;;;6142597;23;20009;-61
2022/01/25 09:16:34;;;;;;;44.28;25.42;;;6.40;60.80;;;;;;6144349;23;20348;-61
2022/01/25 09:19:01;;;;;;;42.13;25.23;;;6.40;60.80;;;;;;6144154;23;20199;-61
2022/01/25 09:21:27;;;;;;;46.08;25.75;;;6.40;60.80;;;;;;6143032;23;20008;-61
2022/01/25 09:23:54;;;;;;;44.53;25.13;;;6.40;60.80;;;;;;6142718;23;20439;-61
2022/01/25 09:26:21;;;;;;;44.83;25.77;;;6.40;60.80;;;;;;6143699;23;20001;-60
2022/01/25 09:28:49;;;;;;;47.08;26.20;;;6.50;60.90;;;;;;6143336;23;20016;-60
2022/01/25 09:31:16;;;;;;;44.75;25.77;;;6.50;60.90;;;;;;6143789;23;19994;-60
2022/01/25 09:33:42;;;;;;;47.47;25.75;;;6.50;60.90;;;;;;6143408;23;20427;-60
2022/01/25 09:36:09;;;;;;;48.45;26.35;;;6.50;61.00;;;;;;6143835;23;20006;-61
2022/01/25 09:38:35;;;;;;;43.22;25.42;;;6.50;61.00;;;;;;6144105;23;20010;-60
2022/01/25 09:41:01;;;;;;;47.58;25.92;;;6.50;60.90;;;;;;6144890;23;20423;-60
2022/01/25 09:43:28;;;;;;;40.65;24.48;;;6.50;60.90;;;;;;6142570;23;19998;-59
2022/01/25 09:45:55;;;;;;;44.80;26.55;;;6.60;60.90;;;;;;6143671;23;20358;-61
2022/01/25 09:48:21;;;;;;;45.17;25.65;;;6.60;60.90;;;;;;6142346;23;19997;-61
2022/01/25 09:50:48;;;;;;;48.65;27.13;;;6.60;60.90;;;;;;6144076;23;20359;-60
2022/01/25 09:53:14;;;;;;;44.58;25.88;;;6.60;60.90;;;;;;6142669;23;20219;-60
2022/01/25 09:55:43;;;;;;;49.33;25.35;;;6.60;60.80;;;;;;6143443;23;19994;-61
2022/01/25 09:58:12;;;;;;;45.90;25.85;;;6.60;60.80;;;;;;6140176;23;20342;-61
2022/01/25 10:00:40;;;;;;;51.47;26.58;;;6.60;60.80;;;;;;6142087;23;20295;-60
2022/01/25 10:05:42;;;;;;;51.78;26.55;;;6.60;60.60;;;;;;6148231;23;20328;-61
2022/01/25 10:08:24;;;;;;;46.33;25.40;;;6.60;60.60;;;;;;6129472;23;19997;-61
2022/01/25 10:10:57;;;;;;;43.38;24.45;;;6.70;60.70;;;;;;6140534;23;20009;-60
2022/01/25 10:13:30;;;;;;;42.38;25.02;;;6.70;60.70;;;;;;6135595;23;20309;-60
2022/01/25 10:16:12;;;;;;;46.58;25.48;;;6.70;60.70;;;;;;6139310;23;19994;-61
2022/01/25 10:18:57;;;;;;;43.00;24.88;;;6.70;60.60;;;;;;6152454;23;20000;-61
2022/01/25 10:21:26;;;;;;;47.20;26.48;;;6.70;60.60;;;;;;6152234;23;20326;-60
2022/01/25 10:24:09;;;;;;;51.95;26.42;;;6.70;60.60;;;;;;6142713;23;20001;-61
2022/01/25 10:26:53;;;;;;;48.95;25.33;;;6.70;60.60;;;;;;6143400;23;19997;-61
2022/01/25 10:29:24;;;;;;;44.47;24.88;;;6.70;60.50;;;;;;6143151;23;20021;-60
2022/01/25 10:31:56;;;;;;;44.83;26.50;;;6.80;60.60;;;;;;6141339;23;20006;-61
2022/01/25 10:34:29;;;;;;;42.13;24.67;;;6.80;60.50;;;;;;6143203;23;20009;-61
2022/01/25 10:36:57;;;;;;;48.05;26.00;;;6.80;60.50;;;;;;6151144;23;20002;-61
2022/01/25 10:39:28;;;;;;;45.33;25.35;;;6.80;60.50;;;;;;6144527;23;20450;-60
2022/01/25 10:42:03;;;;;;;42.78;24.52;;;6.80;60.40;;;;;;6143341;23;20012;-61
2022/01/25 10:44:49;;;;;;;47.22;24.98;;;6.80;60.30;;;;;;6143776;23;20435;-61
2022/01/25 10:47:20;;;;;;;51.75;27.15;;;6.70;60.30;;;;;;6143734;23;20016;-61
2022/01/25 10:49:49;;;;;;;41.60;24.25;;;6.80;60.40;;;;;;6152037;23;20009;-60
2022/01/25 10:52:25;;;;;;;48.72;26.92;;;6.80;60.50;;;;;;6139747;23;20028;-60
2022/01/25 10:54:52;;;;;;;51.30;26.50;;;6.80;60.30;;;;;;6140511;23;20012;-60
2022/01/25 10:57:20;;;;;;;49.97;25.85;;;6.70;60.20;;;;;;6142822;23;20421;-61
2022/01/25 11:00:08;;;;;;;49.45;26.08;;;6.70;60.20;;;;;;6143355;23;20006;-61
2022/01/25 11:02:35;;;;;;;44.17;26.30;;;6.70;60.30;;;;;;6141980;23;20005;-61
2022/01/25 11:05:06;;;;;;;45.90;25.10;;;6.70;60.40;;;;;;6144809;23;20010;-60
2022/01/25 11:07:40;;;;;;;47.35;25.02;;;6.60;60.60;;;;;;6141871;23;19994;-61
2022/01/25 11:10:09;;;;;;;43.47;23.02;;;6.60;60.70;;;;;;6138110;23;20017;-61
2022/01/25 11:12:40;;;;;;;46.17;23.73;;;6.60;60.50;;;;;;6142602;23;20009;-61
2022/01/25 11:15:07;;;;;;;49.80;25.40;;;6.60;60.30;;;;;;6152436;23;19993;-61
2022/01/25 11:17:33;;;;;;;45.63;24.65;;;6.50;60.30;;;;;;6142347;23;20002;-60
2022/01/25 11:20:02;;;;;;;43.92;25.52;;;6.40;60.60;;;;;;6144412;23;19997;-61
2022/01/25 11:22:29;;;;;;;47.65;24.38;;;6.40;60.80;;;;;;6141646;23;20362;-60
2022/01/25 11:25:01;;;;;;;44.58;24.23;;;6.40;60.90;;;;;;6144484;23;20363;-60
2022/01/25 11:27:30;;;;;;;49.15;25.05;;;6.40;61.10;;;;;;6144201;23;20017;-61
2022/01/25 11:29:59;;;;;;;46.88;26.52;;;6.40;61.30;;;;;;6143220;23;20004;-61
2022/01/25 11:32:32;;;;;;;46.53;24.27;;;6.40;61.50;;;;;;6139587;23;20001;-61
2022/01/25 11:34:59;;;;;;;46.50;25.30;;;6.40;61.50;;;;;;6138551;23;20097;-58
2022/01/25 11:37:38;;;;;;;41.58;23.40;;;6.40;61.30;;;;;;6141525;23;20470;-61
2022/01/25 11:40:20;;;;;;;49.05;25.33;;;6.40;61.00;;;;;;6144278;23;19998;-61
2022/01/25 11:42:49;;;;;;;45.15;23.45;;;6.30;61.20;;;;;;6152675;23;20020;-60
2022/01/25 11:45:18;;;;;;;48.03;25.77;;;6.40;62.20;;;;;;6144651;23;20192;-60
2022/01/25 11:47:49;;;;;;;47.38;25.52;;;6.40;61.70;;;;;;6146293;23;20377;-61
2022/01/25 11:50:16;;;;;;;44.25;22.98;;;6.40;61.80;;;;;;6145971;23;20227;-61
2022/01/25 11:52:51;;;;;;;49.55;25.27;;;6.50;62.00;;;;;;6144629;23;20037;-61
2022/01/25 11:55:36;;;;;;;42.13;22.48;;;6.50;61.70;;;;;;6143501;23;20002;-61
2022/01/25 11:58:05;;;;;;;47.65;25.73;;;6.50;61.10;;;;;;6143606;23;20334;-61
2022/01/25 12:00:50;;;;;;;43.25;24.08;;;6.60;61.10;;;;;;6146800;23;20009;-60
2022/01/25 12:03:37;;;;;;;47.63;24.55;;;6.60;60.90;;;;;;6141788;23;20009;-60
2022/01/25 12:06:10;;;;;;;47.22;24.80;;;6.60;60.90;;;;;;6144126;23;20008;-61
2022/01/25 12:09:08;;;;;;;44.05;24.65;;;6.60;60.90;;;;;;6145821;23;20002;-61
2022/01/25 12:11:58;;;;;;;44.42;23.98;;;6.60;60.90;;;;;;6142426;23;20299;-60
2022/01/25 12:14:27;;;;;;;42.78;23.05;;;6.70;60.60;;;;;;6152979;23;20210;-61
2022/01/25 12:17:02;;;;;;;46.67;24.83;;;6.70;60.40;;;;;;6143125;23;20017;-61
2022/01/25 12:19:48;;;;;;;45.22;24.17;;;6.70;60.30;;;;;;6143218;23;20014;-61
2022/01/25 12:25:35;;;;;;;43.70;23.38;;;6.70;60.60;;;;;;6145611;23;20009;-61
2022/01/25 12:27:56;;;;;;;46.25;22.95;;;6.70;60.80;;;;;;6141993;23;20438;-60
2022/01/25 12:30:25;;;;;;;45.30;24.85;;;6.80;60.80;;;;;;6154705;23;20010;-61
2022/01/25 12:33:02;;;;;;;43.78;24.73;;;6.80;60.70;;;;;;6145599;23;20020;-60
2022/01/25 12:35:42;;;;;;;41.15;24.05;;;6.80;60.70;;;;;;6143538;23;20005;-61
2022/01/25 12:38:14;;;;;;;46.47;24.67;;;6.80;60.60;;;;;;6142120;23;20005;-61
2022/01/25 12:40:47;;;;;;;45.00;24.98;;;6.90;60.60;;;;;;6154044;23;20005;-60
2022/01/25 12:43:21;;;;;;;45.90;24.17;;;6.90;60.70;;;;;;6152395;23;19997;-61
2022/01/25 12:45:54;;;;;;;44.90;23.60;;;6.90;60.40;;;;;;6144252;23;20009;-61
2022/01/25 12:48:31;;;;;;;47.25;23.52;;;6.90;60.10;;;;;;6143909;23;20002;-61
2022/01/25 12:51:01;;;;;;;43.08;23.67;;;6.90;60.80;;;;;;6145580;23;20017;-60
2022/01/25 12:53:30;;;;;;;50.35;26.13;;;6.90;60.00;;;;;;6142116;23;20548;-60
2022/01/25 12:56:01;;;;;;;45.35;23.75;;;6.90;59.80;;;;;;6143416;23;20001;-61
2022/01/25 12:58:30;;;;;;;45.60;25.38;;;6.90;59.70;;;;;;6153312;23;20308;-61
2022/01/25 13:01:00;;;;;;;49.85;26.17;;;6.80;59.50;;;;;;6144546;23;20013;-61
2022/01/25 13:03:33;;;;;;;52.03;26.02;;;6.80;59.70;;;;;;6144489;23;20002;-61
2022/01/25 13:06:06;;;;;;;48.83;26.17;;;6.80;60.00;;;;;;6155229;23;20435;-60
2022/01/25 13:08:44;;;;;;;52.58;27.08;;;6.80;60.00;;;;;;6151636;23;20005;-61
2022/01/25 13:11:27;;;;;;;49.20;26.05;;;6.80;59.90;;;;;;6155209;23;20028;-61
2022/01/25 13:17:14;;;;;;;49.88;27.65;;;6.70;59.90;;;;;;6153457;23;20036;-61
2022/01/25 13:19:49;;;;;;;48.75;26.25;;;6.70;60.10;;;;;;6141849;23;20339;-61
2022/01/25 13:22:19;;;;;;;53.38;26.25;;;6.70;60.10;;;;;;6142749;23;20422;-61
2022/01/25 13:25:08;;;;;;;48.30;26.25;;;6.60;59.90;;;;;;6143454;23;20008;-61
2022/01/25 13:27:48;;;;;;;41.38;24.75;;;6.60;59.90;;;;;;6143546;23;20012;-60
2022/01/25 13:33:01;;;;;;;41.60;23.38;;;6.60;59.90;;;;;;6148920;23;20013;-60
2022/01/25 13:35:35;;;;;;;42.80;25.17;;;6.60;60.00;;;;;;6143323;23;20192;-61
2022/01/25 13:38:04;;;;;;;;;;;6.60;60.10;;;;;;6142962;23;20012;-61
2022/01/25 13:40:45;;;;;;;47.35;24.17;;;6.60;60.20;;;;;;6145029;23;20115;-61
2022/01/25 13:45:58;;;;;;;43.87;25.23;;;6.50;59.80;;;;;;6151854;23;20017;-61
2022/01/25 13:48:27;;;;;;;40.53;23.52;;;6.50;60.00;;;;;;6143990;23;20380;-61
2022/01/25 13:51:00;;;;;;;44.95;24.10;;;6.40;60.10;;;;;;6144474;23;19998;-61
2022/01/25 13:53:27;;;;;;;43.00;24.17;;;6.50;60.20;;;;;;6144522;23;20032;-61
2022/01/25 13:55:56;;;;;;;43.75;23.83;;;6.50;60.10;;;;;;6144240;23;20196;-61
2022/01/25 13:58:25;;;;;;;40.15;22.00;;;6.50;60.90;;;;;;6143525;23;20001;-60
2022/01/25 14:00:53;;;;;;;37.08;22.73;;;6.50;60.00;;;;;;6144259;23;20311;-61
2022/01/25 14:03:44;;;;;;;41.50;23.38;;;6.50;60.40;;;;;;6141965;23;20441;-61
2022/01/25 14:06:24;;;;;;;40.38;24.27;;;6.40;59.80;;;;;;6141465;23;20012;-61
2022/01/25 14:08:52;;;;;;;40.10;21.17;;;6.50;59.90;;;;;;6144180;23;20327;-61
2022/01/25 14:11:38;;;;;;;39.53;21.75;;;6.50;59.90;;;;;;6144587;23;20004;-61
2022/01/25 14:25:40;;;;;;;40.58;21.42;;;6.60;60.00;;;;;;6159989;23;20016;-61
2022/01/25 14:28:12;;;;;;;34.70;20.98;;;6.60;59.80;;;;;;6144652;23;20009;-61
2022/01/25 14:30:42;;;;;;;39.95;21.27;;;6.70;59.80;;;;;;6143570;23;20007;-61
2022/01/25 14:33:14;;;;;;;39.45;22.35;;;6.70;59.70;;;;;;6143096;23;20005;-61
2022/01/25 14:35:50;;;;;;;33.17;20.77;;;6.70;59.60;;;;;;6144321;23;20017;-61
2022/01/25 14:38:31;;;;;;;39.55;22.20;;;6.70;59.40;;;;;;6145510;23;20009;-60
2022/01/25 14:41:03;;;;;;;43.20;22.45;;;6.80;59.40;;;;;;6148103;23;20009;-61
2022/01/25 14:43:32;;;;;;;37.03;21.48;;;6.80;59.60;;;;;;6145207;23;20008;-61
2022/01/25 14:46:10;;;;;;;49.53;28.95;;;6.80;59.60;;;;;;6135574;23;20009;-61
2022/01/25 14:48:38;;;;;;;37.15;23.75;;;6.80;59.50;;;;;;6140736;23;20010;-61
2022/01/25 14:51:08;;;;;;;34.17;21.58;;;6.90;59.50;;;;;;6143374;23;20002;-61
2022/01/25 14:53:35;;;;;;;34.08;20.50;;;6.90;59.30;;;;;;6138236;23;20029;-61
2022/01/25 14:56:03;;;;;;;35.13;21.73;;;6.90;59.20;;;;;;6138472;23;20034;-60
2022/01/25 15:01:15;;;;;;;37.72;22.52;;;7.00;58.90;;;;;;6154048;23;20016;-61